Time;durP1;ratioP1;P1;durP2;ratioP2;P2;SDS_P1;SDS_P2;PMS_P1;PMS_P2;Temp;Humidity;BMP_temperature;BMP_pressure;BME280_temperature;BME280_humidity;BME280_pressure;Samples;Min_cycle;Max_cycle;Signal;HPM_P1;HPM_P2
2022/04/11 00:01:18;;;;;;;3.40;1.27;;;;;;;17.31;51.60;96831.59;10335839;28;20336;-23
2022/04/11 00:06:19;;;;;;;4.07;1.10;;;;;;;17.28;51.87;96826.47;10327323;28;20038;-23
2022/04/11 00:11:19;;;;;;;1.60;0.97;;;;;;;17.29;51.78;96833.22;10341539;28;20050;-22
2022/04/11 00:16:19;;;;;;;1.30;0.80;;;;;;;17.29;51.97;96823.13;10331067;28;20038;-22
2022/04/11 00:21:20;;;;;;;2.00;1.10;;;;;;;17.27;51.65;96825.66;10366843;28;20049;-23
2022/04/11 00:26:20;;;;;;;2.23;1.07;;;;;;;17.28;51.95;96829.00;10327484;28;20540;-22
2022/04/11 00:31:21;;;;;;;2.72;0.90;;;;;;;17.26;51.79;96830.69;10327196;28;20304;-23
2022/04/11 00:36:22;;;;;;;3.95;1.25;;;;;;;17.33;55.19;96820.59;10346823;28;20030;-24
2022/04/11 00:41:22;;;;;;;3.72;1.50;;;;;;;17.43;56.40;96797.09;10327158;28;20038;-22
2022/04/11 00:46:22;;;;;;;7.57;1.30;;;;;;;17.43;54.11;96797.09;10326723;28;20065;-22
2022/04/11 00:51:23;;;;;;;2.53;1.43;;;;;;;17.35;52.19;96796.19;10327897;28;20034;-22
2022/04/11 00:56:28;;;;;;;3.47;0.93;;;;;;;17.30;51.92;96794.44;10334563;28;20113;-23
2022/04/11 01:01:28;;;;;;;1.60;0.70;;;;;;;17.25;51.82;96783.47;10333490;28;20030;-22
2022/04/11 01:06:29;;;;;;;1.65;1.08;;;;;;;17.26;51.66;96788.50;10332302;28;20609;-22
2022/04/11 01:11:29;;;;;;;1.20;0.70;;;;;;;17.24;51.92;96785.13;10334550;28;20041;-22
2022/04/11 01:16:30;;;;;;;1.90;0.90;;;;;;;17.15;51.76;96764.00;10332076;28;20077;-23
2022/04/11 01:21:31;;;;;;;2.60;1.30;;;;;;;17.25;51.98;96770.81;10332062;28;20038;-23
2022/04/11 01:26:33;;;;;;;2.38;1.00;;;;;;;17.17;51.82;96765.69;10331778;28;20386;-23
2022/04/11 01:31:33;;;;;;;2.20;0.70;;;;;;;17.22;51.75;96775.84;10329364;28;20103;-22
2022/04/11 01:36:34;;;;;;;1.20;0.80;;;;;;;17.14;51.79;96749.69;10350103;28;20407;-24
2022/04/11 01:41:36;;;;;;;5.72;1.23;;;;;;;17.25;53.18;96761.53;10372141;28;20066;-22
2022/04/11 01:46:36;;;;;;;2.77;1.10;;;;;;;17.39;56.73;96756.56;10349747;28;20045;-22
2022/04/11 01:51:43;;;;;;;3.80;1.48;;;;;;;17.41;55.82;96747.31;10330719;28;20833;-22
2022/04/11 01:56:44;;;;;;;1.55;0.93;;;;;;;17.32;52.56;96724.47;10330268;28;20042;-23
2022/04/11 02:01:44;;;;;;;1.50;0.73;;;;;;;17.27;52.11;96710.94;10348955;28;20443;-22
2022/04/11 02:06:44;;;;;;;1.43;0.80;;;;;;;17.26;52.13;96704.19;10363980;28;20041;-21
2022/04/11 02:11:45;;;;;;;1.92;1.17;;;;;;;17.23;51.89;96692.38;10330080;28;20104;-22
2022/04/11 02:16:46;;;;;;;1.95;0.70;;;;;;;17.22;51.74;96683.09;10336330;28;20456;-22
2022/04/11 02:21:46;;;;;;;1.70;0.77;;;;;;;17.24;51.69;96683.09;10365846;28;20557;-23
2022/04/11 02:26:46;;;;;;;1.07;0.60;;;;;;;17.24;51.88;96686.47;10329848;28;20042;-23
2022/04/11 02:31:47;;;;;;;1.57;0.70;;;;;;;17.26;51.79;96666.25;10329843;28;20030;-22
2022/04/11 02:36:47;;;;;;;2.03;0.80;;;;;;;17.24;51.66;96653.56;10334791;28;20779;-23
2022/04/11 02:41:48;;;;;;;1.98;0.90;;;;;;;17.26;51.75;96656.94;10370979;28;20289;-23
2022/04/11 02:46:48;;;;;;;1.00;0.70;;;;;;;17.24;51.93;96647.69;10363038;28;20033;-23
2022/04/11 02:51:48;;;;;;;3.35;1.17;;;;;;;17.39;56.60;96642.69;10333837;28;20079;-23
2022/04/11 02:56:52;;;;;;;3.97;1.33;;;;;;;17.44;56.52;96646.09;10369095;28;20030;-22
2022/04/11 03:01:53;;;;;;;1.70;0.80;;;;;;;17.35;52.34;96646.03;10348990;28;20034;-22
2022/04/11 03:06:55;;;;;;;2.03;0.80;;;;;;;17.30;51.74;96645.16;10359131;28;20026;-23
2022/04/11 03:11:56;;;;;;;1.45;1.02;;;;;;;17.27;51.84;96637.56;10328056;28;20031;-23
2022/04/11 03:16:57;;;;;;;1.70;0.90;;;;;;;17.25;51.65;96641.78;10328022;28;20026;-22
2022/04/11 03:21:59;;;;;;;2.72;0.73;;;;;;;17.25;52.08;96629.97;10328291;28;20031;-22
2022/04/11 03:27:00;;;;;;;1.65;0.70;;;;;;;17.23;51.79;96636.72;10328096;28;20056;-22
2022/04/11 03:32:05;;;;;;;0.90;0.55;;;;;;;17.25;51.76;96619.00;10327862;28;20544;-22
2022/04/11 03:37:08;;;;;;;1.35;0.60;;;;;;;17.23;51.84;96624.06;10327246;28;20026;-22
2022/04/11 03:42:15;;;;;;;1.58;0.85;;;;;;;17.22;51.59;96635.00;10342447;28;20381;-23
2022/04/11 03:47:16;;;;;;;1.35;0.70;;;;;;;17.24;51.97;96635.84;10367004;28;20034;-22
2022/04/11 03:52:16;;;;;;;1.40;0.67;;;;;;;17.30;51.77;96627.44;10346795;28;20054;-23
2022/04/11 03:57:17;;;;;;;3.97;1.17;;;;;;;17.39;53.19;96622.44;10362279;28;20773;-22
2022/04/11 04:02:20;;;;;;;1.35;1.05;;;;;;;17.47;53.60;96615.72;10366023;28;20088;-22
2022/04/11 04:07:21;;;;;;;1.50;0.80;;;;;;;17.45;52.08;96612.34;10356534;28;20460;-22
2022/04/11 04:12:22;;;;;;;0.70;0.45;;;;;;;17.41;51.98;96619.06;10325798;28;20551;-22
2022/04/11 04:17:35;;;;;;;1.17;0.80;;;;;;;17.42;51.67;96618.22;10325539;28;20041;-22
2022/04/11 04:22:36;;;;;;;0.88;0.63;;;;;;;17.42;52.19;96618.22;10325600;28;20077;-22
2022/04/11 04:27:37;;;;;;;1.58;0.65;;;;;;;17.45;51.94;96612.34;10329022;28;20037;-22
2022/04/11 04:32:40;;;;;;;0.90;0.70;;;;;;;17.44;52.04;96623.31;10333918;28;20053;-22
2022/04/11 04:37:41;;;;;;;1.85;0.65;;;;;;;17.37;51.64;96603.88;10333848;28;20055;-22
2022/04/11 04:42:41;;;;;;;0.95;0.60;;;;;;;17.43;51.76;96614.03;10334585;28;20428;-23
2022/04/11 04:47:45;;;;;;;5.90;1.40;;;;;;;17.39;51.67;96608.09;10333442;28;20026;-22
2022/04/11 04:52:45;;;;;;;6.03;2.35;;;;;;;17.28;49.82;96611.41;10332774;28;20030;-23
2022/04/11 04:57:46;;;;;;;4.10;1.42;;;;;;;17.33;50.26;96610.59;10334077;28;20552;-21
2022/04/11 05:02:46;;;;;;;4.18;1.27;;;;;;;17.36;50.16;96617.38;10332651;28;20046;-22
2022/04/11 05:07:50;;;;;;;11.18;2.40;;;;;;;17.41;51.30;96613.19;10330146;28;20030;-22
2022/04/11 05:12:55;;;;;;;3.95;0.85;;;;;;;17.41;51.00;96610.66;10331993;28;20157;-22
2022/04/11 05:17:57;;;;;;;5.05;1.10;;;;;;;17.44;51.57;96625.84;10331764;28;20564;-23
2022/04/11 05:23:00;;;;;;;3.55;0.93;;;;;;;17.41;51.79;96636.78;10331317;28;20033;-23
2022/04/11 05:28:05;;;;;;;2.60;0.63;;;;;;;17.40;51.47;96634.28;10331496;28;20456;-23
2022/04/11 05:33:10;;;;;;;2.10;0.77;;;;;;;17.40;51.32;96645.22;10331985;28;20030;-22
2022/04/11 05:38:10;;;;;;;5.38;1.15;;;;;;;17.00;44.38;96650.09;10346487;28;20500;-22
2022/04/11 05:43:13;;;;;;;2.45;1.25;;;;;;;17.06;49.52;96652.69;10372157;28;20041;-23
2022/04/11 05:48:14;;;;;;;5.30;1.37;;;;;;;17.18;50.85;96637.53;10352605;28;20045;-24
2022/04/11 05:53:14;;;;;;;2.85;1.00;;;;;;;17.24;51.30;96648.50;10331331;28;20297;-22
2022/04/11 05:58:15;;;;;;;4.53;0.88;;;;;;;17.25;51.59;96646.84;10331505;28;20436;-22
2022/04/11 06:03:15;;;;;;;1.70;0.70;;;;;;;17.27;51.25;96645.16;10332405;28;20104;-22
2022/04/11 06:08:16;;;;;;;7.80;1.70;;;;;;;17.32;53.34;96646.03;10347278;28;20093;-22
2022/04/11 06:13:17;;;;;;;5.47;1.65;;;;;;;17.39;53.98;96642.69;10329878;28;20042;-22
2022/04/11 06:18:17;;;;;;;6.80;1.00;;;;;;;17.37;52.58;96646.91;10329769;28;20067;-22
2022/04/11 06:23:17;;;;;;;5.50;0.93;;;;;;;17.34;51.49;96637.56;10345854;28;20359;-22
2022/04/11 06:28:18;;;;;;;2.27;0.80;;;;;;;17.30;51.30;96647.69;10372086;28;20033;-23
2022/04/11 06:33:19;;;;;;;3.28;0.75;;;;;;;17.22;51.25;96629.97;10337054;28;20295;-24
2022/04/11 06:38:20;;;;;;;1.20;0.60;;;;;;;17.27;51.32;96627.44;10328753;28;20037;-22
2022/04/11 06:43:20;;;;;;;1.63;0.60;;;;;;;17.26;51.52;96624.06;10329023;28;20037;-22
2022/04/11 06:48:33;;;;;;;1.75;0.88;;;;;;;17.26;51.14;96615.63;10328779;28;20294;-23
2022/04/11 06:53:33;;;;;;;2.97;0.70;;;;;;;17.25;51.33;96621.53;10328779;28;20038;-23
2022/04/11 06:58:34;;;;;;;1.53;1.40;;;;;;;17.25;51.32;96619.00;10330131;28;20276;-22
2022/04/11 07:03:34;;;;;;;0.90;0.70;;;;;;;17.22;51.38;96624.91;10330313;28;20621;-22
2022/04/11 07:08:34;;;;;;;1.37;0.73;;;;;;;17.24;51.30;96617.31;10329817;28;20524;-23
2022/04/11 07:13:35;;;;;;;3.13;1.10;;;;;;;17.31;54.74;96613.97;10329244;28;20555;-22
2022/04/11 07:18:36;;;;;;;3.05;1.15;;;;;;;17.41;55.37;96613.19;10329516;28;20201;-23
2022/04/11 07:23:36;;;;;;;2.08;0.93;;;;;;;17.41;53.42;96608.13;10328438;28;20042;-22
2022/04/11 07:28:36;;;;;;;1.30;0.63;;;;;;;17.33;51.76;96604.69;10328636;28;20449;-22
2022/04/11 07:33:37;;;;;;;1.10;0.68;;;;;;;17.28;51.51;96591.19;10328309;28;20444;-22
2022/04/11 07:38:37;;;;;;;1.20;0.83;;;;;;;17.23;51.53;96585.28;10328558;28;20023;-23
2022/04/11 07:43:38;;;;;;;1.40;0.50;;;;;;;17.24;51.33;96582.72;10327880;28;20113;-22
2022/04/11 07:48:38;;;;;;;1.23;0.70;;;;;;;17.23;51.42;96580.22;10327324;28;20038;-23
2022/04/11 07:53:38;;;;;;;1.07;0.70;;;;;;;17.22;51.54;96586.94;10346578;28;20444;-23
2022/04/11 07:58:39;;;;;;;1.10;0.80;;;;;;;17.22;51.45;96593.69;10368986;28;20109;-22
2022/04/11 08:03:39;;;;;;;0.73;0.50;;;;;;;17.22;51.28;96589.47;10331439;28;20030;-22
2022/04/11 08:08:44;;;;;;;0.70;0.60;;;;;;;17.22;51.40;96578.50;10327496;28;20297;-22
2022/04/11 08:13:45;;;;;;;0.90;0.50;;;;;;;17.21;51.53;96574.28;10327303;28;20547;-22
2022/04/11 08:18:45;;;;;;;1.00;0.70;;;;;;;17.14;51.84;96550.66;10349288;28;20108;-21
2022/04/11 08:23:45;;;;;;;1.33;0.80;;;;;;;17.39;55.60;96549.06;10346346;28;20560;-23
2022/04/11 08:28:46;;;;;;;1.67;0.93;;;;;;;17.42;54.92;96546.53;10327590;28;20068;-22
2022/04/11 08:33:46;;;;;;;0.90;0.60;;;;;;;17.30;52.45;96546.47;10326940;28;20304;-22
2022/04/11 08:38:46;;;;;;;0.98;0.70;;;;;;;17.19;51.61;96527.91;10327248;28;20293;-23
2022/04/11 08:43:47;;;;;;;0.73;0.47;;;;;;;17.25;51.58;96538.06;10327070;28;20100;-23
2022/04/11 08:48:48;;;;;;;0.70;0.50;;;;;;;17.22;51.38;96532.97;10327295;28;20038;-23
2022/04/11 08:53:50;;;;;;;2.30;0.75;;;;;;;17.20;51.69;96534.66;10326814;28;20109;-23
2022/04/11 08:58:50;;;;;;;0.80;0.60;;;;;;;17.20;51.64;96542.25;10327739;28;20030;-23
2022/04/11 09:03:51;;;;;;;0.80;0.50;;;;;;;17.18;51.78;96536.34;10367031;28;20041;-23
2022/04/11 09:08:54;;;;;;;0.73;0.45;;;;;;;17.18;51.52;96538.88;10344948;28;20509;-23
2022/04/11 09:13:56;;;;;;;1.02;0.70;;;;;;;17.18;51.60;96527.09;10329473;28;20108;-23
2022/04/11 09:18:56;;;;;;;0.75;0.50;;;;;;;17.18;51.83;96534.69;10334035;28;20038;-22
2022/04/11 09:24:26;;;;;;;1.00;0.50;;;;;;;17.20;51.71;96537.19;10355178;28;20076;-22
2022/04/11 09:29:30;;;;;;;2.13;0.90;;;;;;;17.37;55.83;96546.53;10369273;28;20046;-23
2022/04/11 09:34:31;;;;;;;1.25;0.60;;;;;;;17.43;55.61;96543.16;10337643;28;20569;-22
2022/04/11 09:39:36;;;;;;;1.73;0.57;;;;;;;17.33;52.43;96554.09;10359322;28;20116;-22
2022/04/11 09:44:36;;;;;;;1.85;0.70;;;;;;;17.27;51.90;96547.34;10373086;28;20053;-22
2022/04/11 09:49:38;;;;;;;0.75;0.50;;;;;;;17.23;51.68;96559.97;10338944;28;20042;-22
2022/04/11 09:54:50;;;;;;;0.75;0.57;;;;;;;17.21;51.70;96565.03;10359573;28;20296;-22
2022/04/11 09:59:51;;;;;;;0.77;0.50;;;;;;;17.18;51.86;96547.31;10367091;28;20037;-22
2022/04/11 10:04:53;;;;;;;1.08;0.60;;;;;;;17.21;51.68;96551.53;10332620;28;20056;-22
2022/04/11 10:09:53;;;;;;;1.10;0.55;;;;;;;17.16;51.90;96541.38;10331869;28;20034;-22
2022/04/11 10:14:54;;;;;;;1.52;0.40;;;;;;;17.11;51.68;96538.03;10331872;28;20488;-22
2022/04/11 10:19:54;;;;;;;0.87;0.57;;;;;;;17.11;51.76;96527.91;10331744;28;20401;-22
2022/04/11 10:25:04;;;;;;;2.20;0.50;;;;;;;17.16;51.69;96533.81;10359499;28;20292;-22
2022/04/11 10:30:29;;;;;;;1.88;0.98;;;;;;;17.20;51.73;96534.66;10372260;28;20761;-22
2022/04/11 10:35:39;;;;;;;2.30;0.65;;;;;;;17.35;55.24;96522.91;10330670;28;20456;-23
2022/04/11 10:40:49;;;;;;;1.08;0.93;;;;;;;17.46;55.78;96515.31;10330648;28;20489;-22
2022/04/11 10:45:57;;;;;;;1.83;1.05;;;;;;;17.39;52.21;96511.09;10329641;28;20061;-22
2022/04/11 10:50:57;;;;;;;2.95;0.70;;;;;;;17.35;51.49;96506.84;10330679;28;20038;-22
2022/04/11 10:56:02;;;;;;;3.67;1.00;;;;;;;17.32;51.55;96501.81;10329506;28;20031;-22
2022/04/11 11:01:02;;;;;;;2.65;1.05;;;;;;;17.28;51.73;96489.97;10329838;28;20117;-22
2022/04/11 11:06:21;;;;;;;2.27;1.53;;;;;;;17.28;51.71;96484.91;10329672;28;20459;-22
2022/04/11 11:11:23;;;;;;;5.20;1.70;;;;;;;17.28;51.63;96485.78;10330070;28;20361;-23
2022/04/11 11:16:25;;;;;;;1.90;1.05;;;;;;;17.30;51.61;96465.50;10341279;28;20038;-23
2022/04/11 11:21:32;;;;;;;1.90;0.90;;;;;;;17.33;51.42;96465.53;10367925;28;20034;-23
2022/04/11 11:26:48;;;;;;;3.78;0.98;;;;;;;17.32;51.58;96454.56;10329071;28;20038;-22
2022/04/11 11:31:51;;;;;;;5.00;1.58;;;;;;;17.32;51.61;96452.03;10328612;28;20096;-22
2022/04/11 11:37:06;;;;;;;6.00;1.23;;;;;;;17.31;51.61;96441.94;10328786;28;20026;-23
2022/04/11 11:42:11;;;;;;;12.90;5.53;;;;;;;17.42;54.85;96436.03;10328378;28;20085;-23
2022/04/11 11:47:12;;;;;;;15.20;6.60;;;;;;;17.49;54.72;96431.81;10327873;28;20062;-23
2022/04/11 11:52:13;;;;;;;11.00;3.05;;;;;;;17.42;52.71;96425.91;10335154;28;20037;-23
2022/04/11 11:57:22;;;;;;;3.50;2.08;;;;;;;17.37;52.39;96411.56;10368629;28;20446;-22
2022/04/11 12:07:43;;;;;;;2.97;1.27;;;;;;;17.27;52.13;96399.75;10327876;28;20061;-22
2022/04/11 12:12:45;;;;;;;6.20;1.90;;;;;;;17.27;52.30;96394.69;10328168;28;20093;-23
2022/04/11 12:17:49;;;;;;;4.00;1.27;;;;;;;17.23;52.54;96387.94;10327032;28;20787;-22
2022/04/11 12:23:06;;;;;;;7.03;1.35;;;;;;;17.23;52.15;96382.91;10339759;28;20562;-23
2022/04/11 12:28:18;;;;;;;6.32;1.20;;;;;;;17.23;52.46;96387.94;10367255;28;20046;-22
2022/04/11 12:33:33;;;;;;;4.38;1.25;;;;;;;17.22;52.57;96383.72;10338393;28;20070;-22
2022/04/11 12:38:44;;;;;;;3.17;1.25;;;;;;;17.20;52.42;96375.28;10326567;28;20034;-23
2022/04/11 12:44:12;;;;;;;2.63;1.50;;;;;;;17.20;52.67;96367.69;10326421;28;20516;-22
2022/04/11 12:49:14;;;;;;;9.30;3.78;;;;;;;17.30;55.22;96357.56;10330870;28;20045;-22
2022/04/11 12:54:16;;;;;;;11.40;4.63;;;;;;;17.50;54.87;96372.75;10358282;28;20064;-23
2022/04/11 12:59:30;;;;;;;11.38;4.85;;;;;;;17.43;53.97;96361.81;10372711;28;20037;-22
2022/04/11 13:04:31;;;;;;;4.43;1.88;;;;;;;17.10;52.58;96330.63;10334173;28;20081;-22
2022/04/11 13:09:32;;;;;;;2.05;1.40;;;;;;;17.26;52.57;96362.66;10333638;28;20030;-22
2022/04/11 13:14:33;;;;;;;2.53;1.50;;;;;;;17.22;52.49;96356.75;10333281;28;20405;-23
2022/04/11 13:19:34;;;;;;;3.92;1.63;;;;;;;17.15;52.57;96347.47;10374035;28;20044;-22
2022/04/11 13:24:34;;;;;;;4.13;1.60;;;;;;;17.18;52.97;96352.53;10346435;28;20101;-23
2022/04/11 13:29:35;;;;;;;2.13;1.50;;;;;;;17.17;52.64;96339.88;10334008;28;20101;-23
2022/04/11 13:34:35;;;;;;;3.00;1.40;;;;;;;17.17;52.86;96332.28;10333008;28;20120;-23
2022/04/11 13:39:36;;;;;;;1.70;1.23;;;;;;;17.16;52.93;96326.38;10333123;28;20301;-22
2022/04/11 13:44:37;;;;;;;1.30;1.02;;;;;;;17.14;52.86;96317.97;10332862;28;20432;-23
2022/04/11 13:49:37;;;;;;;2.03;1.50;;;;;;;17.16;53.19;96310.38;10333298;28;20045;-23
2022/04/11 13:54:38;;;;;;;6.80;3.77;;;;;;;17.26;55.73;96314.56;10332563;28;20455;-22
2022/04/11 13:59:40;;;;;;;7.27;4.60;;;;;;;17.44;55.41;96306.97;10331126;28;20034;-23
2022/04/11 14:04:40;;;;;;;4.47;2.90;;;;;;;17.46;54.49;96300.22;10332296;28;20045;-22
2022/04/11 14:09:40;;;;;;;4.00;2.47;;;;;;;17.33;53.09;96291.78;10331866;28;20041;-24
2022/04/11 14:14:41;;;;;;;3.53;1.93;;;;;;;17.22;53.02;96283.38;10331555;28;20301;-23
2022/04/11 14:19:41;;;;;;;3.07;1.73;;;;;;;17.18;53.02;96279.19;10332865;28;20042;-22
2022/04/11 14:24:42;;;;;;;10.80;4.93;;;;;;;17.18;53.03;96273.28;10330837;28;20297;-22
2022/04/11 14:29:43;;;;;;;2.13;1.80;;;;;;;17.15;53.26;96274.13;10334283;28;20507;-23
2022/04/11 14:34:44;;;;;;;2.38;1.73;;;;;;;17.12;53.19;96274.13;10332644;28;20038;-23
2022/04/11 14:39:44;;;;;;;4.53;2.03;;;;;;;17.13;53.26;96272.44;10333585;28;20030;-23
2022/04/11 14:44:44;;;;;;;4.37;1.30;;;;;;;17.14;53.26;96271.59;10332665;28;20719;-23
2022/04/11 14:49:45;;;;;;;5.67;1.60;;;;;;;17.13;53.35;96269.91;10332527;28;20572;-25
2022/04/11 14:54:45;;;;;;;3.72;1.30;;;;;;;17.13;53.03;96259.78;10332796;28;20568;-23
2022/04/11 14:59:46;;;;;;;1.83;1.23;;;;;;;17.12;52.94;96263.16;10332085;28;20030;-23
2022/04/11 15:04:46;;;;;;;6.57;3.53;;;;;;;17.35;56.42;96246.25;10342026;28;20288;-22
2022/04/11 15:09:46;;;;;;;5.97;3.03;;;;;;;17.47;55.81;96251.28;10342046;28;20113;-23
2022/04/11 15:14:47;;;;;;;2.77;1.23;;;;;;;17.39;53.77;96247.94;10332943;28;20425;-22
2022/04/11 15:19:48;;;;;;;1.90;1.40;;;;;;;17.25;52.79;96230.22;10363421;28;20382;-22
2022/04/11 15:24:48;;;;;;;2.83;1.80;;;;;;;17.19;52.81;96234.47;10341969;28;20042;-22
2022/04/11 15:29:49;;;;;;;2.40;1.23;;;;;;;17.15;53.15;96217.66;10332657;28;20077;-22
2022/04/11 15:34:49;;;;;;;1.20;0.90;;;;;;;17.07;53.31;96209.22;10371601;28;20080;-23
2022/04/11 15:39:50;;;;;;;1.83;1.30;;;;;;;17.11;53.11;96210.91;10342803;28;20049;-21
2022/04/11 15:44:50;;;;;;;1.92;1.40;;;;;;;17.13;53.25;96201.59;10334072;28;20289;-22
2022/04/11 15:49:50;;;;;;;2.60;1.30;;;;;;;17.15;53.07;96198.22;10372148;28;20511;-23
2022/04/11 15:54:52;;;;;;;1.65;1.27;;;;;;;17.19;53.07;96199.94;10333208;28;20054;-23
2022/04/11 15:59:52;;;;;;;2.83;1.40;;;;;;;17.15;52.84;96197.41;10331627;28;20258;-23
2022/04/11 16:04:53;;;;;;;3.37;1.37;;;;;;;17.18;52.69;96207.50;10391961;28;20068;-22
2022/04/11 16:09:53;;;;;;;8.60;3.33;;;;;;;17.31;55.75;96201.56;10348193;28;20329;-23
2022/04/11 16:14:53;;;;;;;8.80;2.87;;;;;;;17.46;55.69;96212.50;10326779;28;20489;-22
2022/04/11 16:19:54;;;;;;;3.93;2.80;;;;;;;17.50;55.22;96210.78;10327204;28;20392;-22
2022/04/11 16:24:54;;;;;;;2.33;1.30;;;;;;;17.35;53.13;96205.75;10326323;28;20085;-22
2022/04/11 16:29:55;;;;;;;1.93;1.30;;;;;;;17.25;52.84;96202.41;10326748;28;20294;-22
2022/04/11 16:34:55;;;;;;;5.32;1.50;;;;;;;17.25;53.05;96209.19;10355545;28;20061;-23
2022/04/11 16:39:55;;;;;;;2.07;1.30;;;;;;;17.21;52.98;96208.34;10336459;28;20477;-23
2022/04/11 16:44:56;;;;;;;2.30;1.30;;;;;;;17.22;52.68;96214.22;10326177;28;20057;-22
2022/04/11 16:49:58;;;;;;;1.38;1.15;;;;;;;17.20;53.12;96220.97;10353399;28;20034;-22
2022/04/11 16:54:58;;;;;;;3.22;2.10;;;;;;;17.17;54.25;96221.00;10361964;28;20235;-22
2022/04/11 16:59:58;;;;;;;1.63;1.30;;;;;;;17.17;53.21;96221.00;10332139;28;20559;-23
2022/04/11 17:05:00;;;;;;;2.93;1.33;;;;;;;17.20;53.49;96221.84;10365052;28;20516;-23
2022/04/11 17:10:01;;;;;;;3.05;1.67;;;;;;;17.20;53.25;96221.84;10360499;28;20037;-22
2022/04/11 17:15:01;;;;;;;3.53;1.50;;;;;;;17.20;52.98;96219.31;10361219;28;20038;-22
2022/04/11 17:20:02;;;;;;;11.30;2.90;;;;;;;17.40;55.80;96217.56;10326303;28;20038;-23
2022/04/11 17:25:03;;;;;;;9.68;2.75;;;;;;;17.52;55.56;96221.75;10326339;28;20300;-23
2022/04/11 17:30:04;;;;;;;8.30;2.38;;;;;;;17.40;53.05;96220.09;10326317;28;20481;-23
2022/04/11 17:35:06;;;;;;;2.80;1.00;;;;;;;17.29;53.00;96220.94;10326378;28;20042;-24
2022/04/11 17:40:07;;;;;;;1.55;1.38;;;;;;;17.25;53.01;96231.94;10354475;28;20107;-23
2022/04/11 17:45:08;;;;;;;1.95;1.10;;;;;;;17.22;52.67;96230.25;10359203;28;20662;-22
2022/04/11 17:50:08;;;;;;;2.33;1.23;;;;;;;17.20;52.83;96241.22;10354746;28;20147;-20
2022/04/11 17:55:09;;;;;;;1.30;1.13;;;;;;;17.19;52.82;96242.06;10359563;28;20219;-23
2022/04/11 18:00:12;;;;;;;1.57;1.20;;;;;;;17.17;53.01;96247.13;10359380;28;20184;-23
2022/04/11 18:05:13;;;;;;;2.85;1.25;;;;;;;17.15;52.84;96248.81;10356958;28;20358;-23
2022/04/11 18:10:14;;;;;;;3.08;1.23;;;;;;;17.15;53.08;96258.13;10359494;28;20552;-24
2022/04/11 18:15:14;;;;;;;2.50;1.40;;;;;;;17.06;52.92;96242.97;10352868;28;20141;-23
2022/04/11 18:20:16;;;;;;;2.47;1.33;;;;;;;17.16;53.08;96262.31;10336749;28;20033;-23
2022/04/11 18:25:17;;;;;;;6.53;3.35;;;;;;;17.25;57.06;96265.66;10359701;28;20040;-23
2022/04/11 18:35:38;;;;;;;2.65;1.30;;;;;;;17.46;54.20;96264.78;10358117;28;20217;-22
2022/04/11 18:40:38;;;;;;;2.30;1.20;;;;;;;17.30;52.98;96263.97;10347980;28;20397;-23
2022/04/11 18:45:38;;;;;;;3.13;1.20;;;;;;;17.25;52.88;96272.41;10356996;28;20526;-23
2022/04/11 18:50:39;;;;;;;2.50;1.30;;;;;;;17.22;52.92;96280.00;10351351;28;20042;-22
2022/04/11 18:55:40;;;;;;;1.47;1.00;;;;;;;17.20;52.71;96290.13;10338237;28;20399;-22
2022/04/11 19:00:40;;;;;;;2.20;1.58;;;;;;;17.20;53.07;96289.28;10352879;28;20297;-23
2022/04/11 19:05:42;;;;;;;2.35;1.30;;;;;;;17.20;52.92;96302.78;10349811;28;20120;-22
2022/04/11 19:10:42;;;;;;;2.28;1.10;;;;;;;17.21;53.07;96298.56;10339587;28;20073;-23
2022/04/11 19:15:43;;;;;;;2.27;1.20;;;;;;;17.20;52.90;96307.00;10358239;28;20042;-22
2022/04/11 19:20:43;;;;;;;1.38;1.10;;;;;;;17.22;52.66;96315.41;10351453;28;20124;-23
2022/04/11 19:25:44;;;;;;;1.40;0.87;;;;;;;17.19;52.98;96317.94;10348931;28;20041;-23
2022/04/11 19:30:45;;;;;;;1.42;1.08;;;;;;;17.18;52.86;96328.91;10348168;28;20300;-22
2022/04/11 19:35:45;;;;;;;2.87;1.47;;;;;;;17.40;54.42;96331.44;10347886;28;20042;-22
2022/04/11 19:40:46;;;;;;;3.30;1.80;;;;;;;17.52;55.29;96341.56;10354639;28;20137;-22
2022/04/11 19:45:47;;;;;;;1.67;1.17;;;;;;;17.39;53.31;96344.94;10358439;28;20385;-23
2022/04/11 19:50:47;;;;;;;2.05;1.30;;;;;;;17.29;52.86;96339.84;10349459;28;20064;-22
2022/04/11 19:55:48;;;;;;;2.30;1.23;;;;;;;17.26;53.11;96339.88;10327182;28;20034;-22
2022/04/11 20:00:49;;;;;;;2.00;1.35;;;;;;;17.24;53.08;96344.94;10365520;28;20504;-23
2022/04/11 20:05:49;;;;;;;1.53;1.13;;;;;;;17.25;52.89;96341.53;10359996;28;20038;-22
2022/04/11 20:10:49;;;;;;;2.07;1.30;;;;;;;17.27;52.53;96354.22;10327564;28;20038;-22
2022/04/11 20:15:50;;;;;;;1.67;1.07;;;;;;;17.25;52.51;96340.72;10327234;28;20057;-22
2022/04/11 20:20:50;;;;;;;2.03;1.13;;;;;;;17.29;52.86;96355.03;10327448;28;20030;-23
2022/04/11 20:25:51;;;;;;;1.93;1.43;;;;;;;17.27;52.63;96344.09;10327294;28;20750;-22
2022/04/11 20:30:51;;;;;;;2.40;1.10;;;;;;;17.25;52.49;96346.59;10327616;28;20295;-25
2022/04/11 20:35:51;;;;;;;1.63;1.30;;;;;;;17.24;52.66;96349.16;10367524;28;20046;-23
2022/04/11 20:40:52;;;;;;;5.60;2.50;;;;;;;17.35;55.57;96347.44;10334051;28;20367;-22
2022/04/11 20:45:52;;;;;;;6.07;2.40;;;;;;;17.49;57.33;96351.66;10355124;28;20413;-23
2022/04/11 20:50:53;;;;;;;3.67;1.20;;;;;;;17.49;54.26;96350.84;10326275;28;20057;-22
2022/04/11 20:55:54;;;;;;;2.22;1.10;;;;;;;17.35;52.70;96347.44;10326382;28;20313;-23
2022/04/11 21:00:55;;;;;;;1.17;0.93;;;;;;;17.31;52.78;96345.78;10327135;28;20117;-22
2022/04/11 21:05:55;;;;;;;1.40;0.80;;;;;;;17.27;52.44;96344.09;10326725;28;20408;-23
2022/04/11 21:10:55;;;;;;;1.30;0.67;;;;;;;17.25;52.55;96333.13;10331719;28;20046;-23
2022/04/11 21:15:58;;;;;;;1.70;1.03;;;;;;;17.22;52.71;96331.44;10334568;28;20038;-23
2022/04/11 21:20:58;;;;;;;2.47;0.85;;;;;;;17.21;52.82;96328.91;10334064;28;20456;-22
2022/04/11 21:25:58;;;;;;;1.47;1.20;;;;;;;17.20;52.84;96322.16;10333999;28;20097;-23
2022/04/11 21:30:59;;;;;;;3.87;1.53;;;;;;;17.19;52.83;96316.28;10333476;28;20312;-23
2022/04/11 21:35:59;;;;;;;1.42;1.10;;;;;;;17.17;52.64;96309.53;10333665;28;20384;-23
2022/04/11 21:41:00;;;;;;;2.08;1.25;;;;;;;17.17;52.99;96309.53;10333683;28;20073;-22
2022/04/11 21:46:00;;;;;;;1.80;1.08;;;;;;;17.18;52.88;96316.28;10332955;28;20519;-22
2022/04/11 21:51:01;;;;;;;7.57;2.57;;;;;;;17.40;56.91;96315.44;10333159;28;20045;-23
2022/04/11 21:56:02;;;;;;;2.55;1.45;;;;;;;17.49;54.17;96315.41;10332232;28;20046;-23
2022/04/11 22:01:02;;;;;;;2.20;0.80;;;;;;;17.33;53.18;96308.66;10332874;28;20041;-22
2022/04/11 22:06:04;;;;;;;1.83;1.00;;;;;;;17.28;52.79;96310.34;10332735;28;20528;-22
2022/04/11 22:11:04;;;;;;;1.60;1.33;;;;;;;17.24;52.80;96306.97;10332252;28;20232;-23
2022/04/11 22:16:05;;;;;;;1.53;1.17;;;;;;;17.20;52.71;96307.00;10331752;28;20043;-23
2022/04/11 22:21:06;;;;;;;1.30;1.02;;;;;;;17.15;52.79;96299.41;10330715;28;20676;-23
2022/04/11 22:26:06;;;;;;;1.45;1.20;;;;;;;17.20;52.63;96300.25;10370265;28;20038;-23
2022/04/11 22:31:10;;;;;;;1.10;0.85;;;;;;;17.18;53.01;96298.56;10363466;28;20046;-22
2022/04/11 22:36:10;;;;;;;3.05;1.23;;;;;;;17.15;52.86;96296.88;10331699;28;20118;-22
2022/04/11 22:41:11;;;;;;;1.20;1.10;;;;;;;17.20;52.58;96291.81;10370694;28;20109;-24
2022/04/11 22:46:11;;;;;;;0.68;0.65;;;;;;;17.16;52.62;96283.38;10365486;28;20096;-23
2022/04/11 22:51:12;;;;;;;1.47;0.93;;;;;;;17.17;52.79;96292.66;10330602;28;20420;-24
2022/04/11 22:56:12;;;;;;;5.45;1.88;;;;;;;17.36;57.19;96289.28;10330195;28;20394;-22
2022/04/11 23:01:12;;;;;;;4.47;1.90;;;;;;;17.49;57.17;96285.03;10344335;28;20401;-22
2022/04/11 23:06:13;;;;;;;2.13;1.10;;;;;;;17.40;53.46;96285.06;10369297;28;20037;-22
2022/04/11 23:11:13;;;;;;;1.50;1.20;;;;;;;17.25;52.81;96270.72;10329579;28;20420;-23
2022/04/11 23:16:14;;;;;;;1.33;1.00;;;;;;;17.22;52.60;96277.47;10344465;28;20033;-22
2022/04/11 23:21:15;;;;;;;1.13;0.75;;;;;;;17.15;52.60;96273.28;10369634;28;20061;-23
2022/04/11 23:26:15;;;;;;;1.55;1.00;;;;;;;17.17;52.76;96274.94;10329246;28;20041;-22
2022/04/11 23:31:15;;;;;;;1.67;0.90;;;;;;;17.17;52.84;96271.59;10336458;28;20034;-22